Time;durP1;ratioP1;P1;durP2;ratioP2;P2;SDS_P1;SDS_P2;PMS_P1;PMS_P2;Temp;Humidity;BMP_temperature;BMP_pressure;BME280_temperature;BME280_humidity;BME280_pressure;Samples;Min_cycle;Max_cycle;Signal;HPM_P1;HPM_P2
2022/10/12 00:00:41;;;;;;;40.23;25.47;;;;;;;;;;5012714;28;20179;-80
2022/10/12 00:03:06;;;;;;;37.60;27.43;;;;;;;;;;4992487;28;20189;-80
2022/10/12 00:05:31;;;;;;;45.07;26.43;;;;;;;;;;4995467;28;20451;-80
2022/10/12 00:07:57;;;;;;;40.60;26.27;;;;;;;;;;5001817;28;20210;-79
2022/10/12 00:10:22;;;;;;;43.70;27.27;;;;;;;;;;4990759;28;20179;-79
2022/10/12 00:12:47;;;;;;;39.00;26.83;;;;;;;;;;5012652;28;20211;-79
2022/10/12 00:15:12;;;;;;;41.17;26.93;;;;;;;;;;4998671;28;20248;-80
2022/10/12 00:17:38;;;;;;;43.57;26.33;;;;;;;;;;5013007;28;20233;-79
2022/10/12 00:20:03;;;;;;;53.90;25.23;;;;;;;;;;4994993;28;20204;-80
2022/10/12 00:22:29;;;;;;;60.00;26.43;;;;;;;;;;4994190;28;20209;-80
2022/10/12 00:24:54;;;;;;;64.97;24.43;;;;;;;;;;4994949;28;20208;-80
2022/10/12 00:27:20;;;;;;;39.13;23.03;;;;;;;;;;4990160;28;20293;-80
2022/10/12 00:29:45;;;;;;;58.27;25.60;;;;;;;;;;4998159;28;20194;-79
2022/10/12 00:32:10;;;;;;;66.77;24.40;;;;;;;;;;5002179;28;20173;-79
2022/10/12 00:34:35;;;;;;;85.20;28.50;;;;;;;;;;4996807;28;20170;-80
2022/10/12 00:37:00;;;;;;;55.67;25.27;;;;;;;;;;4991997;28;20185;-80
2022/10/12 00:39:26;;;;;;;61.50;25.63;;;;;;;;;;5000190;28;20185;-79
2022/10/12 00:41:51;;;;;;;47.17;23.80;;;;;;;;;;4998712;28;20183;-79
2022/10/12 00:44:31;;;;;;;87.90;26.57;;;;;;;;;;4997121;28;20193;-80
2022/10/12 00:46:58;;;;;;;64.37;25.33;;;;;;;;;;4993882;28;20207;-80
2022/10/12 00:49:24;;;;;;;85.53;26.27;;;;;;;;;;5018420;28;20279;-80
2022/10/12 00:51:51;;;;;;;52.57;26.27;;;;;;;;;;5012095;28;20221;-79
2022/10/12 00:54:19;;;;;;;40.77;23.37;;;;;;;;;;5016550;28;20208;-79
2022/10/12 00:56:45;;;;;;;63.80;23.70;;;;;;;;;;5016829;28;20274;-80
2022/10/12 00:59:34;;;;;;;126.80;27.27;;;;;;;;;;5013938;28;20173;-79
2022/10/12 01:01:59;;;;;;;72.63;26.53;;;;;;;;;;4964879;28;20234;-79
2022/10/12 01:04:25;;;;;;;63.87;24.43;;;;;;;;;;5024814;28;20200;-79
2022/10/12 01:06:51;;;;;;;59.23;22.60;;;;;;;;;;5033221;28;20201;-80
2022/10/12 01:09:16;;;;;;;65.97;24.67;;;;;;;;;;5012569;28;20194;-80
2022/10/12 01:11:41;;;;;;;49.57;23.47;;;;;;;;;;5008418;28;20181;-79
2022/10/12 01:14:06;;;;;;;56.83;23.40;;;;;;;;;;5022903;28;20174;-80
2022/10/12 01:16:35;;;;;;;54.70;23.10;;;;;;;;;;5010843;28;20182;-80
2022/10/12 01:19:03;;;;;;;60.47;23.77;;;;;;;;;;5015942;28;20282;-79
2022/10/12 01:21:30;;;;;;;47.90;24.50;;;;;;;;;;5014992;28;20181;-79
2022/10/12 01:23:55;;;;;;;50.07;23.67;;;;;;;;;;5014293;28;20188;-80
2022/10/12 01:26:23;;;;;;;74.63;24.73;;;;;;;;;;5010940;28;20180;-79
2022/10/12 01:28:58;;;;;;;60.20;24.80;;;;;;;;;;5015260;28;20326;-79
2022/10/12 01:31:29;;;;;;;52.17;24.30;;;;;;;;;;5029225;28;20213;-79
2022/10/12 01:33:57;;;;;;;78.73;25.50;;;;;;;;;;5014729;28;20208;-80
2022/10/12 01:36:36;;;;;;;63.03;23.20;;;;;;;;;;5013107;28;20174;-79
2022/10/12 01:39:11;;;;;;;34.47;22.00;;;;;;;;;;5028967;28;20209;-80
2022/10/12 01:41:39;;;;;;;62.70;21.83;;;;;;;;;;5040658;28;20253;-80
2022/10/12 01:44:05;;;;;;;45.83;21.13;;;;;;;;;;5012156;28;20169;-80
2022/10/12 01:46:30;;;;;;;53.27;23.83;;;;;;;;;;5016304;28;20291;-79
2022/10/12 01:48:57;;;;;;;57.33;23.00;;;;;;;;;;5016436;28;20226;-79
2022/10/12 01:51:42;;;;;;;42.30;21.87;;;;;;;;;;5016174;28;20180;-79
2022/10/12 01:54:27;;;;;;;42.70;21.63;;;;;;;;;;4997358;28;20207;-79
2022/10/12 01:57:16;;;;;;;66.70;21.60;;;;;;;;;;5015053;28;20182;-79
2022/10/12 01:59:53;;;;;;;39.93;22.07;;;;;;;;;;4982766;28;20265;-80
2022/10/12 02:02:25;;;;;;;44.07;22.60;;;;;;;;;;5011077;28;20190;-79
2022/10/12 02:04:57;;;;;;;38.33;20.37;;;;;;;;;;5019142;28;20238;-79
2022/10/12 02:07:25;;;;;;;51.93;19.73;;;;;;;;;;5018056;28;20201;-79
2022/10/12 02:09:54;;;;;;;39.57;20.70;;;;;;;;;;5014993;28;20228;-80
2022/10/12 02:12:21;;;;;;;49.77;20.67;;;;;;;;;;5019991;28;20188;-80
2022/10/12 02:14:49;;;;;;;53.27;20.83;;;;;;;;;;5013543;28;20196;-79
2022/10/12 02:17:15;;;;;;;35.87;19.60;;;;;;;;;;5010243;28;20192;-79
2022/10/12 02:19:47;;;;;;;44.60;20.87;;;;;;;;;;5015321;28;20203;-80
2022/10/12 02:22:13;;;;;;;49.20;21.00;;;;;;;;;;5043713;28;20188;-80
2022/10/12 02:24:41;;;;;;;43.23;22.00;;;;;;;;;;5013994;28;20206;-79
2022/10/12 02:27:07;;;;;;;47.30;21.27;;;;;;;;;;5033838;28;20215;-80
2022/10/12 02:29:35;;;;;;;42.37;19.70;;;;;;;;;;5017316;28;20212;-80
2022/10/12 02:32:19;;;;;;;41.00;22.17;;;;;;;;;;5012102;28;20276;-80
2022/10/12 02:34:47;;;;;;;26.97;19.47;;;;;;;;;;5016287;28;20180;-79
2022/10/12 02:37:13;;;;;;;32.10;20.00;;;;;;;;;;5016573;28;20278;-80
2022/10/12 02:39:41;;;;;;;28.73;19.60;;;;;;;;;;5022217;28;20258;-80
2022/10/12 02:42:12;;;;;;;28.57;20.37;;;;;;;;;;5012904;28;20204;-80
2022/10/12 02:44:38;;;;;;;27.00;19.83;;;;;;;;;;5022418;28;20185;-80
2022/10/12 02:47:05;;;;;;;30.00;19.63;;;;;;;;;;5034025;28;20204;-79
2022/10/12 02:49:31;;;;;;;29.30;19.67;;;;;;;;;;5029410;28;20274;-80
2022/10/12 02:51:57;;;;;;;29.73;19.57;;;;;;;;;;5015256;28;20184;-79
2022/10/12 02:54:22;;;;;;;32.10;19.77;;;;;;;;;;5016640;28;20188;-80
2022/10/12 02:56:48;;;;;;;29.70;19.80;;;;;;;;;;5021581;28;20178;-80
2022/10/12 02:59:14;;;;;;;29.23;17.70;;;;;;;;;;5024666;28;20176;-79
2022/10/12 03:01:39;;;;;;;30.20;18.10;;;;;;;;;;5003614;28;20176;-80
2022/10/12 03:04:04;;;;;;;28.73;17.07;;;;;;;;;;5013378;28;20181;-80
2022/10/12 03:06:30;;;;;;;25.10;18.03;;;;;;;;;;5015746;28;20279;-79
2022/10/12 03:08:56;;;;;;;30.33;18.50;;;;;;;;;;5018007;28;20198;-79
2022/10/12 03:11:21;;;;;;;27.63;18.13;;;;;;;;;;5014098;28;20192;-80
2022/10/12 03:13:46;;;;;;;29.97;18.30;;;;;;;;;;5018708;28;20271;-79
2022/10/12 03:16:12;;;;;;;28.57;17.87;;;;;;;;;;5014828;28;20178;-80
2022/10/12 03:18:37;;;;;;;26.33;17.30;;;;;;;;;;5030197;28;20198;-80
2022/10/12 03:21:02;;;;;;;26.20;16.57;;;;;;;;;;5016499;28;20189;-79
2022/10/12 03:23:28;;;;;;;25.97;17.50;;;;;;;;;;5015216;28;20183;-79
2022/10/12 03:25:53;;;;;;;30.53;17.23;;;;;;;;;;5021938;28;20215;-79
2022/10/12 03:28:18;;;;;;;24.90;17.30;;;;;;;;;;5009282;28;20198;-80
2022/10/12 03:30:43;;;;;;;28.63;18.53;;;;;;;;;;5011790;28;20184;-80
2022/10/12 03:33:09;;;;;;;29.63;17.43;;;;;;;;;;5019353;28;20224;-79
2022/10/12 03:35:34;;;;;;;30.17;18.47;;;;;;;;;;5012251;28;20185;-80
2022/10/12 03:37:59;;;;;;;28.73;17.33;;;;;;;;;;5011629;28;20279;-80
2022/10/12 03:40:25;;;;;;;27.33;17.50;;;;;;;;;;5013268;28;20220;-79
2022/10/12 03:42:50;;;;;;;25.80;16.60;;;;;;;;;;5015938;28;20242;-79
2022/10/12 03:45:15;;;;;;;27.27;17.63;;;;;;;;;;5015057;28;20356;-79
2022/10/12 03:47:41;;;;;;;28.07;18.00;;;;;;;;;;5012073;28;20224;-79
2022/10/12 03:50:06;;;;;;;26.53;16.97;;;;;;;;;;5029031;28;20225;-80
2022/10/12 03:52:31;;;;;;;23.30;16.27;;;;;;;;;;5012976;28;20506;-79
2022/10/12 03:54:57;;;;;;;27.10;15.97;;;;;;;;;;5015549;28;20185;-79
2022/10/12 03:57:22;;;;;;;28.10;17.07;;;;;;;;;;5015415;28;20189;-80
2022/10/12 03:59:47;;;;;;;25.00;16.43;;;;;;;;;;5017213;28;20181;-79
2022/10/12 04:02:12;;;;;;;22.57;15.93;;;;;;;;;;5012153;28;20185;-80
2022/10/12 04:04:37;;;;;;;26.77;17.53;;;;;;;;;;5014674;28;20243;-79
2022/10/12 04:07:03;;;;;;;23.77;16.37;;;;;;;;;;5015206;28;20214;-80
2022/10/12 04:09:28;;;;;;;23.60;16.13;;;;;;;;;;5019525;28;20181;-80
2022/10/12 04:11:53;;;;;;;27.43;17.60;;;;;;;;;;5013158;28;20248;-78
2022/10/12 04:14:18;;;;;;;22.57;16.27;;;;;;;;;;5016560;28;20180;-80
2022/10/12 04:16:44;;;;;;;28.00;16.43;;;;;;;;;;5004023;28;20193;-79
2022/10/12 04:19:12;;;;;;;27.30;17.70;;;;;;;;;;5013036;28;20184;-79
2022/10/12 04:21:37;;;;;;;26.77;15.33;;;;;;;;;;5007911;28;20191;-80
2022/10/12 04:24:02;;;;;;;21.83;15.77;;;;;;;;;;5028046;28;20180;-79
2022/10/12 04:26:27;;;;;;;23.77;16.07;;;;;;;;;;5011242;28;20194;-79
2022/10/12 04:28:53;;;;;;;24.97;18.90;;;;;;;;;;5009847;28;20204;-80
2022/10/12 04:31:18;;;;;;;24.67;17.77;;;;;;;;;;5011888;28;20185;-80
2022/10/12 04:33:43;;;;;;;30.67;17.97;;;;;;;;;;5011879;28;20182;-79
2022/10/12 04:36:09;;;;;;;26.93;19.60;;;;;;;;;;5013145;28;20286;-79
2022/10/12 04:38:35;;;;;;;30.00;22.77;;;;;;;;;;5013017;28;20202;-80
2022/10/12 04:41:00;;;;;;;32.80;20.40;;;;;;;;;;5042824;28;20265;-79
2022/10/12 04:43:25;;;;;;;28.80;18.37;;;;;;;;;;5005344;28;20191;-79
2022/10/12 04:45:54;;;;;;;30.13;22.70;;;;;;;;;;5012394;28;20204;-79
2022/10/12 04:48:20;;;;;;;31.83;22.03;;;;;;;;;;5027967;28;20214;-80
2022/10/12 04:50:45;;;;;;;23.13;16.90;;;;;;;;;;4989002;28;20233;-79
2022/10/12 04:53:10;;;;;;;25.93;18.43;;;;;;;;;;4995821;28;20203;-79
2022/10/12 04:55:36;;;;;;;30.57;23.37;;;;;;;;;;5011806;28;20184;-79
2022/10/12 04:58:01;;;;;;;23.47;15.73;;;;;;;;;;4988987;28;20190;-79
2022/10/12 05:00:26;;;;;;;21.40;17.33;;;;;;;;;;4997273;28;20276;-79
2022/10/12 05:02:51;;;;;;;23.80;18.03;;;;;;;;;;4990587;28;20185;-79
2022/10/12 05:05:17;;;;;;;26.93;15.83;;;;;;;;;;4996256;28;20209;-79
2022/10/12 05:07:42;;;;;;;26.50;16.23;;;;;;;;;;4991618;28;20194;-79
2022/10/12 05:10:07;;;;;;;25.67;14.90;;;;;;;;;;4991791;28;20204;-79
2022/10/12 05:12:32;;;;;;;21.63;15.17;;;;;;;;;;4995231;28;20183;-79
2022/10/12 05:14:58;;;;;;;25.03;15.60;;;;;;;;;;4986651;28;20187;-79
2022/10/12 05:17:23;;;;;;;23.70;14.73;;;;;;;;;;4992761;28;20181;-79
2022/10/12 05:19:48;;;;;;;24.03;15.47;;;;;;;;;;4989378;28;20194;-80
2022/10/12 05:22:14;;;;;;;22.70;13.83;;;;;;;;;;4986127;28;20192;-80
2022/10/12 05:24:39;;;;;;;23.20;15.77;;;;;;;;;;4992255;28;20183;-80
2022/10/12 05:27:04;;;;;;;20.47;14.47;;;;;;;;;;4984766;28;20233;-79
2022/10/12 05:29:29;;;;;;;28.03;16.40;;;;;;;;;;4988807;28;20180;-79
2022/10/12 05:31:54;;;;;;;25.47;15.70;;;;;;;;;;4982176;28;20223;-79
2022/10/12 05:34:20;;;;;;;24.13;14.13;;;;;;;;;;4997701;28;20183;-80
2022/10/12 05:36:45;;;;;;;30.37;18.03;;;;;;;;;;4994498;28;20178;-79
2022/10/12 05:39:10;;;;;;;23.00;15.13;;;;;;;;;;4996122;28;20196;-80
2022/10/12 05:41:35;;;;;;;25.33;14.77;;;;;;;;;;4989369;28;20187;-80
2022/10/12 05:44:01;;;;;;;24.10;15.77;;;;;;;;;;4983882;28;20179;-79
2022/10/12 05:46:26;;;;;;;22.57;14.20;;;;;;;;;;4985823;28;20208;-80
2022/10/12 05:48:51;;;;;;;29.77;15.83;;;;;;;;;;4996280;28;20217;-79
2022/10/12 05:51:16;;;;;;;22.77;13.67;;;;;;;;;;5007705;28;20180;-79
2022/10/12 05:53:42;;;;;;;22.07;14.77;;;;;;;;;;5014762;28;20180;-79
2022/10/12 05:56:07;;;;;;;26.13;15.37;;;;;;;;;;5019281;28;20181;-79
2022/10/12 05:58:32;;;;;;;19.97;12.97;;;;;;;;;;5007456;28;20179;-79
2022/10/12 06:01:08;;;;;;;21.87;14.63;;;;;;;;;;5005501;28;20215;-80
2022/10/12 06:03:33;;;;;;;29.33;16.50;;;;;;;;;;5006485;28;20184;-79
2022/10/12 06:05:59;;;;;;;21.90;14.50;;;;;;;;;;5013344;28;20192;-79
2022/10/12 06:08:24;;;;;;;22.40;14.63;;;;;;;;;;5013391;28;20227;-79
2022/10/12 06:10:50;;;;;;;25.53;14.90;;;;;;;;;;5011507;28;20183;-80
2022/10/12 06:13:16;;;;;;;25.27;15.07;;;;;;;;;;5021578;28;20185;-80
2022/10/12 06:15:43;;;;;;;23.27;14.07;;;;;;;;;;5008376;28;20200;-79
2022/10/12 06:18:08;;;;;;;28.70;14.97;;;;;;;;;;5012969;28;20260;-79
2022/10/12 06:20:34;;;;;;;28.03;14.73;;;;;;;;;;5011660;28;20229;-79
2022/10/12 06:22:59;;;;;;;18.07;13.23;;;;;;;;;;5014174;28;20275;-80
2022/10/12 06:25:24;;;;;;;22.03;13.97;;;;;;;;;;5007228;28;20335;-80
2022/10/12 06:27:49;;;;;;;20.87;13.37;;;;;;;;;;5044214;28;20278;-80
2022/10/12 06:30:14;;;;;;;23.77;15.27;;;;;;;;;;5005605;28;20192;-79
2022/10/12 06:32:40;;;;;;;20.90;13.30;;;;;;;;;;5027948;28;20168;-80
2022/10/12 06:35:05;;;;;;;20.93;13.53;;;;;;;;;;5042030;28;20176;-79
2022/10/12 06:37:30;;;;;;;23.43;13.43;;;;;;;;;;5011010;28;20227;-79
2022/10/12 06:39:56;;;;;;;18.27;13.53;;;;;;;;;;5015153;28;20240;-80
2022/10/12 06:42:21;;;;;;;23.93;13.37;;;;;;;;;;5014565;28;20258;-79
2022/10/12 06:44:47;;;;;;;21.37;13.80;;;;;;;;;;5020093;28;20182;-80
2022/10/12 06:47:12;;;;;;;17.20;12.47;;;;;;;;;;5032505;28;20204;-80
2022/10/12 06:49:37;;;;;;;20.97;13.60;;;;;;;;;;5022297;28;20227;-80
2022/10/12 06:52:02;;;;;;;21.50;15.00;;;;;;;;;;5046006;28;20184;-79
2022/10/12 06:54:28;;;;;;;21.67;15.60;;;;;;;;;;5019374;28;20188;-80
2022/10/12 06:56:53;;;;;;;22.23;14.40;;;;;;;;;;5017056;28;20180;-79
2022/10/12 06:59:19;;;;;;;28.80;20.07;;;;;;;;;;5008992;28;20179;-79
2022/10/12 07:01:44;;;;;;;32.27;18.93;;;;;;;;;;5010902;28;20175;-79
2022/10/12 07:04:09;;;;;;;23.20;13.97;;;;;;;;;;5013486;28;20182;-80
2022/10/12 07:06:34;;;;;;;20.47;12.30;;;;;;;;;;5014108;28;20184;-79
2022/10/12 07:09:00;;;;;;;23.10;13.17;;;;;;;;;;5011096;28;20213;-80
2022/10/12 07:11:26;;;;;;;18.23;12.30;;;;;;;;;;5016855;28;20190;-80
2022/10/12 07:13:51;;;;;;;21.60;12.73;;;;;;;;;;5016499;28;20175;-79
2022/10/12 07:16:16;;;;;;;15.70;12.47;;;;;;;;;;5010516;28;20178;-80
2022/10/12 07:18:42;;;;;;;22.03;12.63;;;;;;;;;;5031410;28;20179;-80
2022/10/12 07:21:07;;;;;;;21.80;12.27;;;;;;;;;;5032382;28;20268;-79
2022/10/12 07:23:32;;;;;;;17.90;13.90;;;;;;;;;;5007234;28;20186;-79
2022/10/12 07:25:58;;;;;;;19.70;12.37;;;;;;;;;;5014005;28;20191;-79
2022/10/12 07:28:23;;;;;;;19.90;12.67;;;;;;;;;;5016021;28;20203;-79
2022/10/12 07:30:49;;;;;;;22.33;13.23;;;;;;;;;;5006018;28;20181;-80
2022/10/12 07:33:14;;;;;;;24.40;14.80;;;;;;;;;;5014018;28;20208;-79
2022/10/12 07:35:39;;;;;;;21.83;13.27;;;;;;;;;;5016904;28;20177;-80
2022/10/12 07:38:04;;;;;;;21.60;15.60;;;;;;;;;;5002733;28;20197;-78
2022/10/12 07:40:30;;;;;;;22.37;13.40;;;;;;;;;;5000762;28;20189;-79
2022/10/12 07:42:55;;;;;;;27.30;16.03;;;;;;;;;;4999624;28;20185;-80
2022/10/12 07:45:21;;;;;;;17.33;13.00;;;;;;;;;;5000411;28;20186;-80
2022/10/12 07:47:46;;;;;;;23.67;14.53;;;;;;;;;;5005399;28;20205;-80
2022/10/12 07:50:11;;;;;;;22.47;13.70;;;;;;;;;;5005460;28;20224;-80
2022/10/12 07:52:37;;;;;;;18.90;12.83;;;;;;;;;;4991857;28;20188;-79
2022/10/12 07:55:02;;;;;;;21.63;12.63;;;;;;;;;;4988559;28;20201;-79
2022/10/12 07:57:27;;;;;;;22.17;14.70;;;;;;;;;;5004555;28;20186;-80
2022/10/12 07:59:53;;;;;;;19.20;13.47;;;;;;;;;;4994143;28;20184;-79
2022/10/12 08:02:18;;;;;;;22.03;14.60;;;;;;;;;;4990260;28;20189;-80
2022/10/12 08:04:43;;;;;;;24.13;14.73;;;;;;;;;;4994870;28;20174;-80
2022/10/12 08:07:09;;;;;;;21.57;15.13;;;;;;;;;;4998284;28;20213;-79
2022/10/12 08:09:35;;;;;;;22.40;15.43;;;;;;;;;;4997374;28;20217;-80
2022/10/12 08:12:00;;;;;;;28.20;17.17;;;;;;;;;;4993654;28;20274;-80
2022/10/12 08:14:25;;;;;;;17.90;13.43;;;;;;;;;;4994309;28;20205;-79
2022/10/12 08:16:51;;;;;;;24.57;14.10;;;;;;;;;;5006537;28;20182;-79
2022/10/12 08:19:16;;;;;;;19.60;14.27;;;;;;;;;;4991068;28;20187;-81
2022/10/12 08:21:41;;;;;;;18.20;14.00;;;;;;;;;;5003785;28;20173;-80
2022/10/12 08:24:07;;;;;;;22.93;15.17;;;;;;;;;;5000913;28;20193;-80
2022/10/12 08:26:33;;;;;;;21.10;15.00;;;;;;;;;;4996283;28;20178;-80
2022/10/12 08:28:58;;;;;;;23.50;14.63;;;;;;;;;;5000511;28;20217;-79
2022/10/12 08:31:23;;;;;;;22.07;17.10;;;;;;;;;;5005990;28;20371;-79
2022/10/12 08:33:49;;;;;;;22.90;12.17;;;;;;;;;;5027046;28;20188;-80
2022/10/12 08:36:14;;;;;;;19.47;15.07;;;;;;;;;;4995568;28;20189;-80
2022/10/12 08:38:41;;;;;;;24.37;17.37;;;;;;;;;;5009592;28;20250;-79
2022/10/12 08:41:22;;;;;;;26.03;16.60;;;;;;;;;;4993859;28;20186;-80
2022/10/12 08:43:50;;;;;;;17.30;11.90;;;;;;;;;;4990132;28;20183;-80
2022/10/12 08:46:18;;;;;;;21.47;12.80;;;;;;;;;;4994203;28;20211;-80
2022/10/12 08:48:50;;;;;;;22.90;15.63;;;;;;;;;;4991315;28;20298;-81
2022/10/12 08:51:17;;;;;;;20.70;14.43;;;;;;;;;;5000823;28;20240;-80
2022/10/12 08:53:50;;;;;;;27.57;13.63;;;;;;;;;;5009269;28;20182;-80
2022/10/12 08:56:19;;;;;;;18.10;12.80;;;;;;;;;;5011753;28;20281;-80
2022/10/12 08:58:45;;;;;;;28.57;15.00;;;;;;;;;;5011950;28;20317;-80
2022/10/12 09:01:11;;;;;;;19.70;13.73;;;;;;;;;;5019487;28;20201;-80
2022/10/12 09:03:52;;;;;;;17.00;11.70;;;;;;;;;;5007282;28;20285;-80
2022/10/12 09:06:18;;;;;;;17.83;12.60;;;;;;;;;;5008680;28;20178;-79
2022/10/12 09:09:01;;;;;;;22.03;13.03;;;;;;;;;;5005368;28;20240;-79
2022/10/12 09:11:43;;;;;;;18.63;13.27;;;;;;;;;;5020939;28;20218;-80
2022/10/12 09:14:18;;;;;;;19.53;13.30;;;;;;;;;;5025621;28;20191;-80
2022/10/12 09:16:45;;;;;;;21.47;14.30;;;;;;;;;;5027713;28;20414;-80
2022/10/12 09:19:18;;;;;;;20.87;14.47;;;;;;;;;;5009798;28;20233;-80
2022/10/12 09:21:45;;;;;;;24.73;14.23;;;;;;;;;;5010929;28;20192;-81
2022/10/12 09:24:14;;;;;;;21.37;14.87;;;;;;;;;;5025809;28;20198;-80
2022/10/12 09:26:39;;;;;;;20.03;12.03;;;;;;;;;;5013927;28;20241;-80
2022/10/12 09:29:17;;;;;;;22.40;13.33;;;;;;;;;;5011018;28;20199;-80
2022/10/12 09:31:45;;;;;;;20.30;12.83;;;;;;;;;;5017659;28;20240;-80
2022/10/12 09:34:11;;;;;;;18.43;13.30;;;;;;;;;;5015897;28;20184;-80
2022/10/12 09:36:38;;;;;;;23.53;13.77;;;;;;;;;;5016168;28;20262;-81
2022/10/12 09:39:05;;;;;;;21.37;13.47;;;;;;;;;;5014955;28;20189;-80
2022/10/12 09:41:35;;;;;;;20.07;13.30;;;;;;;;;;5005744;28;20187;-80
2022/10/12 09:44:05;;;;;;;17.97;12.77;;;;;;;;;;5036728;28;20194;-80
2022/10/12 09:46:33;;;;;;;21.13;13.17;;;;;;;;;;5018622;28;20285;-80
2022/10/12 09:48:59;;;;;;;21.03;13.60;;;;;;;;;;5009500;28;20249;-81
2022/10/12 09:51:24;;;;;;;16.63;13.00;;;;;;;;;;5016084;28;20187;-80
2022/10/12 09:53:50;;;;;;;16.90;11.47;;;;;;;;;;5009876;28;20182;-80
2022/10/12 09:56:22;;;;;;;18.17;12.70;;;;;;;;;;5011896;28;20188;-80
2022/10/12 09:58:52;;;;;;;20.17;12.53;;;;;;;;;;4999740;28;20404;-80
2022/10/12 10:01:18;;;;;;;18.33;11.97;;;;;;;;;;5024656;28;20176;-81
2022/10/12 10:03:44;;;;;;;20.57;11.40;;;;;;;;;;5007123;28;20183;-80
2022/10/12 10:06:09;;;;;;;20.10;12.30;;;;;;;;;;5012645;28;20189;-80
2022/10/12 10:08:40;;;;;;;19.40;12.77;;;;;;;;;;5007977;28;20239;-81
2022/10/12 10:11:11;;;;;;;19.83;12.80;;;;;;;;;;5019926;28;20186;-81
2022/10/12 10:13:37;;;;;;;17.90;11.80;;;;;;;;;;5005521;28;20186;-81
2022/10/12 10:16:03;;;;;;;18.80;11.97;;;;;;;;;;5015720;28;20176;-81
2022/10/12 10:18:42;;;;;;;19.23;11.60;;;;;;;;;;5012816;28;20188;-81
2022/10/12 10:21:11;;;;;;;18.30;10.57;;;;;;;;;;5013914;28;20192;-80
2022/10/12 10:23:54;;;;;;;22.80;11.53;;;;;;;;;;5014074;28;20457;-80
2022/10/12 10:26:20;;;;;;;16.23;11.57;;;;;;;;;;5020790;28;20188;-80
2022/10/12 10:28:47;;;;;;;15.73;11.50;;;;;;;;;;5012940;28;20276;-81
2022/10/12 10:31:13;;;;;;;15.73;11.17;;;;;;;;;;5015625;28;20237;-81
2022/10/12 10:33:39;;;;;;;21.80;10.60;;;;;;;;;;5031974;28;20180;-80
2022/10/12 10:36:16;;;;;;;17.20;12.83;;;;;;;;;;5018772;28;20187;-81
2022/10/12 10:38:57;;;;;;;16.67;11.03;;;;;;;;;;5017017;28;20179;-81
2022/10/12 10:41:27;;;;;;;12.83;10.10;;;;;;;;;;5017409;28;20234;-81
2022/10/12 10:43:53;;;;;;;13.60;10.47;;;;;;;;;;5014940;28;20238;-81
2022/10/12 10:46:22;;;;;;;15.77;11.73;;;;;;;;;;5010517;28;20212;-80
2022/10/12 10:48:50;;;;;;;15.43;11.17;;;;;;;;;;5013194;28;20207;-81
2022/10/12 10:51:15;;;;;;;18.47;11.63;;;;;;;;;;5032820;28;20174;-81
2022/10/12 10:53:42;;;;;;;20.63;12.37;;;;;;;;;;5015636;28;20188;-81
2022/10/12 10:56:11;;;;;;;17.33;10.60;;;;;;;;;;5013514;28;20389;-80
2022/10/12 10:58:44;;;;;;;15.87;10.40;;;;;;;;;;5009577;28;20194;-81
2022/10/12 11:01:14;;;;;;;14.73;10.67;;;;;;;;;;5014406;28;20257;-81
2022/10/12 11:03:44;;;;;;;18.10;11.00;;;;;;;;;;5013627;28;20185;-79
2022/10/12 11:06:24;;;;;;;17.03;11.60;;;;;;;;;;5031492;28;20196;-81
2022/10/12 11:08:55;;;;;;;31.07;14.47;;;;;;;;;;5014812;28;20236;-81
2022/10/12 11:11:23;;;;;;;23.57;12.17;;;;;;;;;;5016764;28;20550;-81
2022/10/12 11:14:02;;;;;;;16.80;10.93;;;;;;;;;;5019844;28;20219;-81
2022/10/12 11:16:30;;;;;;;15.57;11.07;;;;;;;;;;5026514;28;20182;-81
2022/10/12 11:18:57;;;;;;;14.10;10.10;;;;;;;;;;5010385;28;20191;-82
2022/10/12 11:21:26;;;;;;;15.07;10.73;;;;;;;;;;5033501;28;20241;-81
2022/10/12 11:23:51;;;;;;;16.23;9.33;;;;;;;;;;5015203;28;20186;-81
2022/10/12 11:26:23;;;;;;;13.73;9.67;;;;;;;;;;5014657;28;20207;-82
2022/10/12 11:28:48;;;;;;;26.63;16.73;;;;;;;;;;5014937;28;20205;-82
2022/10/12 11:31:17;;;;;;;13.83;9.73;;;;;;;;;;5033360;28;20179;-82
2022/10/12 11:33:43;;;;;;;16.37;9.40;;;;;;;;;;5016336;28;20182;-81
2022/10/12 11:36:19;;;;;;;15.00;9.87;;;;;;;;;;5016402;28;20190;-81
2022/10/12 11:38:46;;;;;;;14.03;9.47;;;;;;;;;;5031762;28;20246;-82
2022/10/12 11:41:19;;;;;;;15.17;10.10;;;;;;;;;;5014502;28;20242;-82
2022/10/12 11:43:58;;;;;;;14.17;9.70;;;;;;;;;;5015447;28;20183;-81
2022/10/12 11:46:39;;;;;;;15.60;10.50;;;;;;;;;;5020054;28;20199;-81
2022/10/12 11:49:24;;;;;;;16.00;10.07;;;;;;;;;;5010804;28;20234;-82
2022/10/12 11:51:51;;;;;;;16.10;9.17;;;;;;;;;;5023777;28;20195;-82
2022/10/12 11:54:30;;;;;;;14.07;9.43;;;;;;;;;;5029915;28;20229;-81
2022/10/12 11:56:57;;;;;;;14.67;9.20;;;;;;;;;;5012968;28;20193;-81
2022/10/12 11:59:29;;;;;;;13.67;8.63;;;;;;;;;;5009962;28;20185;-82
2022/10/12 12:01:57;;;;;;;15.90;9.43;;;;;;;;;;5006772;28;20237;-82
2022/10/12 12:04:22;;;;;;;12.73;8.57;;;;;;;;;;5014840;28;20185;-82
2022/10/12 12:06:52;;;;;;;13.37;9.07;;;;;;;;;;5013901;28;20181;-82
2022/10/12 12:09:20;;;;;;;9.93;8.87;;;;;;;;;;5008041;28;20215;-82
2022/10/12 12:11:45;;;;;;;15.57;8.80;;;;;;;;;;5013346;28;20186;-82
2022/10/12 12:14:20;;;;;;;14.10;8.93;;;;;;;;;;5004347;28;20179;-82
2022/10/12 12:16:46;;;;;;;13.77;8.83;;;;;;;;;;5014942;28;20178;-82
2022/10/12 12:19:16;;;;;;;15.33;9.83;;;;;;;;;;5046047;28;20249;-82
2022/10/12 12:22:00;;;;;;;21.20;11.53;;;;;;;;;;5016275;28;20186;-82
2022/10/12 12:24:25;;;;;;;14.20;8.57;;;;;;;;;;5030168;28;20200;-82
2022/10/12 12:26:51;;;;;;;14.20;8.23;;;;;;;;;;5003080;28;20188;-82
2022/10/12 12:29:25;;;;;;;16.10;9.87;;;;;;;;;;5012908;28;20222;-82
2022/10/12 12:32:00;;;;;;;17.20;9.67;;;;;;;;;;5013775;28;20178;-82
2022/10/12 12:34:26;;;;;;;15.33;8.50;;;;;;;;;;5017654;28;20191;-81
2022/10/12 12:36:51;;;;;;;16.33;9.80;;;;;;;;;;5021339;28;20187;-82
2022/10/12 12:39:33;;;;;;;15.63;9.50;;;;;;;;;;5018695;28;20182;-82
2022/10/12 12:42:00;;;;;;;13.73;10.17;;;;;;;;;;5009838;28;20214;-82
2022/10/12 12:44:28;;;;;;;15.27;8.97;;;;;;;;;;5016647;28;20206;-82
2022/10/12 12:46:53;;;;;;;13.93;9.60;;;;;;;;;;5004874;28;20204;-82
2022/10/12 12:49:26;;;;;;;13.13;8.93;;;;;;;;;;5012724;28;20258;-82
2022/10/12 12:51:53;;;;;;;12.87;8.40;;;;;;;;;;4987592;28;20178;-82
2022/10/12 12:54:20;;;;;;;12.33;8.70;;;;;;;;;;5016924;28;20193;-83
2022/10/12 12:56:45;;;;;;;15.17;8.50;;;;;;;;;;4996004;28;20179;-82
2022/10/12 12:59:30;;;;;;;9.93;8.50;;;;;;;;;;4994438;28;20183;-83
2022/10/12 13:02:14;;;;;;;10.83;7.87;;;;;;;;;;5009689;28;20257;-82
2022/10/12 13:04:43;;;;;;;13.10;8.00;;;;;;;;;;4995906;28;20216;-82
2022/10/12 13:07:23;;;;;;;15.90;9.27;;;;;;;;;;4994170;28;20182;-82
2022/10/12 13:09:54;;;;;;;11.23;8.30;;;;;;;;;;5001778;28;20178;-82
2022/10/12 13:12:22;;;;;;;14.13;8.20;;;;;;;;;;4997928;28;20176;-83
2022/10/12 13:14:48;;;;;;;15.80;9.30;;;;;;;;;;4993174;28;20175;-82
2022/10/12 13:17:28;;;;;;;17.73;9.27;;;;;;;;;;4995316;28;20185;-82
2022/10/12 13:19:54;;;;;;;12.10;7.57;;;;;;;;;;4992139;28;20197;-83
2022/10/12 13:22:28;;;;;;;14.53;8.30;;;;;;;;;;4994494;28;20174;-83
2022/10/12 13:24:57;;;;;;;11.50;8.57;;;;;;;;;;5009542;28;20179;-83
2022/10/12 13:27:32;;;;;;;10.33;8.93;;;;;;;;;;4992479;28;20206;-83
2022/10/12 13:30:07;;;;;;;15.20;8.97;;;;;;;;;;4996767;28;20237;-83
2022/10/12 13:32:41;;;;;;;11.10;8.00;;;;;;;;;;5005425;28;20200;-82
2022/10/12 13:35:25;;;;;;;13.17;8.80;;;;;;;;;;4996714;28;20277;-83
2022/10/12 13:38:01;;;;;;;15.33;8.23;;;;;;;;;;5021594;28;20181;-82
2022/10/12 13:40:27;;;;;;;14.03;8.33;;;;;;;;;;4987255;28;20503;-83
2022/10/12 13:42:52;;;;;;;12.87;7.93;;;;;;;;;;5000475;28;20254;-83
2022/10/12 13:45:18;;;;;;;12.67;7.70;;;;;;;;;;4994668;28;20180;-82
2022/10/12 13:47:43;;;;;;;9.33;7.13;;;;;;;;;;4996440;28;20200;-83
2022/10/12 13:50:15;;;;;;;11.00;6.73;;;;;;;;;;5010753;28;20281;-82
2022/10/12 13:52:50;;;;;;;12.47;7.50;;;;;;;;;;5015442;28;20197;-83
2022/10/12 13:55:15;;;;;;;12.80;6.63;;;;;;;;;;5013148;28;20177;-83
2022/10/12 13:57:41;;;;;;;9.50;6.40;;;;;;;;;;5022360;28;20182;-83
2022/10/12 14:00:07;;;;;;;13.90;7.93;;;;;;;;;;5014614;28;20262;-83
2022/10/12 14:02:32;;;;;;;8.07;6.50;;;;;;;;;;5011921;28;20250;-83
2022/10/12 14:05:00;;;;;;;13.80;7.50;;;;;;;;;;5030768;28;20192;-82
2022/10/12 14:07:28;;;;;;;12.23;7.23;;;;;;;;;;5011996;28;20199;-83
2022/10/12 14:09:55;;;;;;;8.57;6.90;;;;;;;;;;5016364;28;20190;-82
2022/10/12 14:12:21;;;;;;;6.67;5.93;;;;;;;;;;5021719;28;20181;-83
2022/10/12 14:14:47;;;;;;;13.93;6.47;;;;;;;;;;5019735;28;20177;-83
2022/10/12 14:17:16;;;;;;;10.70;8.13;;;;;;;;;;5017663;28;20168;-83
2022/10/12 14:19:43;;;;;;;9.53;6.37;;;;;;;;;;5009512;28;20263;-82
2022/10/12 14:22:10;;;;;;;9.93;6.20;;;;;;;;;;5014300;28;20270;-83